sensor_id;sensor_type;location;lat;lon;timestamp;P1;durP1;ratioP1;P2;durP2;ratioP2
37449;SDS011;23309;52.582;13.406;2022-10-04T00:01:21;10.00;;;2.33;;
37449;SDS011;23309;52.582;13.406;2022-10-04T00:03:50;10.57;;;2.53;;
37449;SDS011;23309;52.582;13.406;2022-10-04T00:06:27;12.87;;;2.67;;
37449;SDS011;23309;52.582;13.406;2022-10-04T00:08:54;10.17;;;2.37;;
37449;SDS011;23309;52.582;13.406;2022-10-04T00:11:27;7.77;;;1.87;;
37449;SDS011;23309;52.582;13.406;2022-10-04T00:13:57;9.10;;;1.93;;
37449;SDS011;23309;52.582;13.406;2022-10-04T00:16:25;8.70;;;2.30;;
37449;SDS011;23309;52.582;13.406;2022-10-04T00:19:01;4.63;;;2.00;;
37449;SDS011;23309;52.582;13.406;2022-10-04T00:31:05;13.33;;;2.40;;
37449;SDS011;23309;52.582;13.406;2022-10-04T00:33:36;18.93;;;2.77;;
37449;SDS011;23309;52.582;13.406;2022-10-04T00:45:22;13.40;;;3.17;;
37449;SDS011;23309;52.582;13.406;2022-10-04T00:51:08;8.43;;;2.00;;
37449;SDS011;23309;52.582;13.406;2022-10-04T00:53:47;9.73;;;2.50;;
37449;SDS011;23309;52.582;13.406;2022-10-04T00:56:32;10.77;;;2.47;;
37449;SDS011;23309;52.582;13.406;2022-10-04T01:02:01;8.97;;;2.67;;
37449;SDS011;23309;52.582;13.406;2022-10-04T01:04:36;9.43;;;2.30;;
37449;SDS011;23309;52.582;13.406;2022-10-04T01:07:08;9.70;;;2.33;;
37449;SDS011;23309;52.582;13.406;2022-10-04T01:09:38;6.43;;;2.30;;
37449;SDS011;23309;52.582;13.406;2022-10-04T01:12:14;8.87;;;2.67;;
37449;SDS011;23309;52.582;13.406;2022-10-04T01:14:50;9.30;;;2.67;;
37449;SDS011;23309;52.582;13.406;2022-10-04T01:17:27;7.83;;;2.37;;
37449;SDS011;23309;52.582;13.406;2022-10-04T01:19:53;9.70;;;2.23;;
37449;SDS011;23309;52.582;13.406;2022-10-04T01:22:32;9.90;;;2.43;;
37449;SDS011;23309;52.582;13.406;2022-10-04T01:25:02;12.27;;;2.70;;
37449;SDS011;23309;52.582;13.406;2022-10-04T01:27:33;15.27;;;2.90;;
37449;SDS011;23309;52.582;13.406;2022-10-04T01:30:05;13.20;;;2.47;;
37449;SDS011;23309;52.582;13.406;2022-10-04T01:32:36;10.20;;;2.30;;
37449;SDS011;23309;52.582;13.406;2022-10-04T01:35:03;12.20;;;2.80;;
37449;SDS011;23309;52.582;13.406;2022-10-04T01:37:33;11.93;;;2.30;;
37449;SDS011;23309;52.582;13.406;2022-10-04T01:40:00;8.70;;;2.20;;
37449;SDS011;23309;52.582;13.406;2022-10-04T01:42:28;12.33;;;2.13;;
37449;SDS011;23309;52.582;13.406;2022-10-04T01:45:02;8.30;;;2.70;;
37449;SDS011;23309;52.582;13.406;2022-10-04T01:47:34;7.53;;;2.20;;
37449;SDS011;23309;52.582;13.406;2022-10-04T01:50:09;9.90;;;2.00;;
37449;SDS011;23309;52.582;13.406;2022-10-04T01:52:42;9.93;;;2.90;;
37449;SDS011;23309;52.582;13.406;2022-10-04T01:55:14;8.10;;;2.50;;
37449;SDS011;23309;52.582;13.406;2022-10-04T01:57:45;13.23;;;2.40;;
37449;SDS011;23309;52.582;13.406;2022-10-04T02:00:14;11.60;;;2.17;;
37449;SDS011;23309;52.582;13.406;2022-10-04T02:02:43;18.47;;;2.87;;
37449;SDS011;23309;52.582;13.406;2022-10-04T02:07:51;10.00;;;2.80;;
37449;SDS011;23309;52.582;13.406;2022-10-04T02:10:19;12.83;;;2.80;;
37449;SDS011;23309;52.582;13.406;2022-10-04T02:12:48;15.20;;;2.63;;
37449;SDS011;23309;52.582;13.406;2022-10-04T02:15:17;7.97;;;2.23;;
37449;SDS011;23309;52.582;13.406;2022-10-04T02:17:45;7.53;;;2.40;;
37449;SDS011;23309;52.582;13.406;2022-10-04T02:20:13;13.43;;;2.60;;
37449;SDS011;23309;52.582;13.406;2022-10-04T02:22:42;7.37;;;2.50;;
37449;SDS011;23309;52.582;13.406;2022-10-04T02:25:12;5.53;;;2.03;;
37449;SDS011;23309;52.582;13.406;2022-10-04T02:27:40;7.70;;;2.33;;
37449;SDS011;23309;52.582;13.406;2022-10-04T02:30:07;5.70;;;2.47;;
37449;SDS011;23309;52.582;13.406;2022-10-04T02:32:37;8.90;;;2.20;;
37449;SDS011;23309;52.582;13.406;2022-10-04T02:35:07;10.90;;;2.77;;
37449;SDS011;23309;52.582;13.406;2022-10-04T02:37:34;8.27;;;2.00;;
37449;SDS011;23309;52.582;13.406;2022-10-04T02:40:03;10.33;;;2.50;;
37449;SDS011;23309;52.582;13.406;2022-10-04T02:42:39;7.23;;;2.30;;
37449;SDS011;23309;52.582;13.406;2022-10-04T02:45:12;7.27;;;2.10;;
37449;SDS011;23309;52.582;13.406;2022-10-04T02:47:46;9.87;;;2.40;;
37449;SDS011;23309;52.582;13.406;2022-10-04T02:50:18;6.57;;;1.90;;
37449;SDS011;23309;52.582;13.406;2022-10-04T02:52:54;8.93;;;1.93;;
37449;SDS011;23309;52.582;13.406;2022-10-04T02:55:26;9.23;;;2.73;;
37449;SDS011;23309;52.582;13.406;2022-10-04T02:57:57;11.00;;;2.43;;
37449;SDS011;23309;52.582;13.406;2022-10-04T03:00:26;8.57;;;1.93;;
37449;SDS011;23309;52.582;13.406;2022-10-04T03:05:40;9.03;;;2.03;;
37449;SDS011;23309;52.582;13.406;2022-10-04T03:08:09;10.77;;;2.47;;
37449;SDS011;23309;52.582;13.406;2022-10-04T03:10:35;8.50;;;2.07;;
37449;SDS011;23309;52.582;13.406;2022-10-04T03:13:04;6.27;;;2.10;;
37449;SDS011;23309;52.582;13.406;2022-10-04T03:15:30;7.63;;;2.17;;
37449;SDS011;23309;52.582;13.406;2022-10-04T03:17:56;12.07;;;2.33;;
37449;SDS011;23309;52.582;13.406;2022-10-04T03:20:24;5.07;;;1.77;;
37449;SDS011;23309;52.582;13.406;2022-10-04T03:22:53;13.70;;;3.07;;
37449;SDS011;23309;52.582;13.406;2022-10-04T03:25:20;7.33;;;2.57;;
37449;SDS011;23309;52.582;13.406;2022-10-04T03:27:53;12.93;;;2.17;;
37449;SDS011;23309;52.582;13.406;2022-10-04T03:30:26;10.20;;;2.30;;
37449;SDS011;23309;52.582;13.406;2022-10-04T03:32:53;12.10;;;2.47;;
37449;SDS011;23309;52.582;13.406;2022-10-04T03:35:22;7.10;;;2.57;;
37449;SDS011;23309;52.582;13.406;2022-10-04T03:37:54;10.23;;;2.30;;
37449;SDS011;23309;52.582;13.406;2022-10-04T03:40:22;11.23;;;2.40;;
37449;SDS011;23309;52.582;13.406;2022-10-04T03:42:54;11.37;;;2.33;;
37449;SDS011;23309;52.582;13.406;2022-10-04T03:45:21;11.90;;;2.20;;
37449;SDS011;23309;52.582;13.406;2022-10-04T03:47:53;10.60;;;2.93;;
37449;SDS011;23309;52.582;13.406;2022-10-04T03:50:30;9.67;;;2.27;;
37449;SDS011;23309;52.582;13.406;2022-10-04T03:53:04;8.40;;;2.43;;
37449;SDS011;23309;52.582;13.406;2022-10-04T03:55:34;12.03;;;2.67;;
37449;SDS011;23309;52.582;13.406;2022-10-04T03:58:05;9.57;;;2.60;;
37449;SDS011;23309;52.582;13.406;2022-10-04T04:00:36;12.83;;;2.60;;
37449;SDS011;23309;52.582;13.406;2022-10-04T04:03:11;8.63;;;2.10;;
37449;SDS011;23309;52.582;13.406;2022-10-04T04:05:44;9.60;;;2.70;;
37449;SDS011;23309;52.582;13.406;2022-10-04T04:08:19;10.40;;;2.27;;
37449;SDS011;23309;52.582;13.406;2022-10-04T04:10:54;6.17;;;2.40;;
37449;SDS011;23309;52.582;13.406;2022-10-04T04:13:23;14.57;;;2.57;;
37449;SDS011;23309;52.582;13.406;2022-10-04T04:15:54;8.70;;;2.70;;
37449;SDS011;23309;52.582;13.406;2022-10-04T04:18:24;9.17;;;3.57;;
37449;SDS011;23309;52.582;13.406;2022-10-04T04:20:54;6.80;;;3.00;;
37449;SDS011;23309;52.582;13.406;2022-10-04T04:23:26;12.80;;;3.27;;
37449;SDS011;23309;52.582;13.406;2022-10-04T04:25:55;8.80;;;2.67;;
37449;SDS011;23309;52.582;13.406;2022-10-04T04:28:37;12.50;;;3.10;;
37449;SDS011;23309;52.582;13.406;2022-10-04T04:31:09;8.33;;;2.97;;
37449;SDS011;23309;52.582;13.406;2022-10-04T04:33:48;11.87;;;3.03;;
37449;SDS011;23309;52.582;13.406;2022-10-04T04:36:20;11.87;;;3.60;;
37449;SDS011;23309;52.582;13.406;2022-10-04T04:38:46;8.50;;;2.70;;
37449;SDS011;23309;52.582;13.406;2022-10-04T04:41:14;9.83;;;2.60;;
37449;SDS011;23309;52.582;13.406;2022-10-04T04:43:42;10.10;;;3.73;;
37449;SDS011;23309;52.582;13.406;2022-10-04T04:46:09;8.30;;;2.40;;
37449;SDS011;23309;52.582;13.406;2022-10-04T04:48:35;7.10;;;2.87;;
37449;SDS011;23309;52.582;13.406;2022-10-04T04:51:04;8.30;;;2.70;;
37449;SDS011;23309;52.582;13.406;2022-10-04T04:53:31;10.37;;;3.00;;
37449;SDS011;23309;52.582;13.406;2022-10-04T04:55:58;7.50;;;2.60;;
37449;SDS011;23309;52.582;13.406;2022-10-04T04:58:28;8.83;;;2.90;;
37449;SDS011;23309;52.582;13.406;2022-10-04T05:00:57;12.83;;;3.50;;
37449;SDS011;23309;52.582;13.406;2022-10-04T05:03:27;13.67;;;2.77;;
37449;SDS011;23309;52.582;13.406;2022-10-04T05:05:53;8.97;;;2.37;;
37449;SDS011;23309;52.582;13.406;2022-10-04T05:08:23;9.50;;;2.50;;
37449;SDS011;23309;52.582;13.406;2022-10-04T05:10:51;13.77;;;3.10;;
37449;SDS011;23309;52.582;13.406;2022-10-04T05:13:29;11.50;;;2.80;;
37449;SDS011;23309;52.582;13.406;2022-10-04T05:16:01;11.37;;;2.37;;
37449;SDS011;23309;52.582;13.406;2022-10-04T05:18:28;12.70;;;3.10;;
37449;SDS011;23309;52.582;13.406;2022-10-04T05:21:01;11.47;;;3.03;;
37449;SDS011;23309;52.582;13.406;2022-10-04T05:23:34;7.27;;;2.97;;
37449;SDS011;23309;52.582;13.406;2022-10-04T05:26:00;8.23;;;2.83;;
37449;SDS011;23309;52.582;13.406;2022-10-04T05:28:27;12.63;;;2.80;;
37449;SDS011;23309;52.582;13.406;2022-10-04T05:31:02;14.03;;;2.83;;
37449;SDS011;23309;52.582;13.406;2022-10-04T05:34:00;9.20;;;2.47;;
37449;SDS011;23309;52.582;13.406;2022-10-04T05:36:34;8.83;;;2.93;;
37449;SDS011;23309;52.582;13.406;2022-10-04T05:39:44;9.77;;;2.37;;
37449;SDS011;23309;52.582;13.406;2022-10-04T05:42:20;8.10;;;2.50;;
37449;SDS011;23309;52.582;13.406;2022-10-04T05:44:55;10.63;;;2.90;;
37449;SDS011;23309;52.582;13.406;2022-10-04T05:47:24;12.07;;;2.53;;
37449;SDS011;23309;52.582;13.406;2022-10-04T05:49:53;10.07;;;2.50;;
37449;SDS011;23309;52.582;13.406;2022-10-04T05:52:25;8.20;;;2.53;;
37449;SDS011;23309;52.582;13.406;2022-10-04T05:57:52;6.83;;;2.33;;
37449;SDS011;23309;52.582;13.406;2022-10-04T06:00:38;12.00;;;3.00;;
37449;SDS011;23309;52.582;13.406;2022-10-04T06:03:22;11.80;;;2.00;;
37449;SDS011;23309;52.582;13.406;2022-10-04T06:05:59;6.43;;;2.10;;
37449;SDS011;23309;52.582;13.406;2022-10-04T06:08:33;7.17;;;2.10;;
37449;SDS011;23309;52.582;13.406;2022-10-04T06:11:16;11.03;;;2.63;;
37449;SDS011;23309;52.582;13.406;2022-10-04T06:17:07;6.93;;;2.40;;
37449;SDS011;23309;52.582;13.406;2022-10-04T06:20:08;8.17;;;2.50;;
37449;SDS011;23309;52.582;13.406;2022-10-04T06:22:57;14.80;;;3.03;;
37449;SDS011;23309;52.582;13.406;2022-10-04T06:25:26;8.53;;;2.57;;
37449;SDS011;23309;52.582;13.406;2022-10-04T06:28:04;9.27;;;3.17;;
37449;SDS011;23309;52.582;13.406;2022-10-04T06:30:43;10.20;;;2.30;;
37449;SDS011;23309;52.582;13.406;2022-10-04T06:33:32;14.83;;;3.30;;
37449;SDS011;23309;52.582;13.406;2022-10-04T06:36:21;6.10;;;2.27;;
37449;SDS011;23309;52.582;13.406;2022-10-04T06:39:21;9.50;;;2.57;;
37449;SDS011;23309;52.582;13.406;2022-10-04T06:42:12;5.07;;;2.23;;
37449;SDS011;23309;52.582;13.406;2022-10-04T06:45:18;4.10;;;2.00;;
37449;SDS011;23309;52.582;13.406;2022-10-04T06:48:08;9.77;;;2.50;;
37449;SDS011;23309;52.582;13.406;2022-10-04T06:51:06;8.30;;;2.27;;
37449;SDS011;23309;52.582;13.406;2022-10-04T06:53:45;9.40;;;2.33;;
37449;SDS011;23309;52.582;13.406;2022-10-04T06:56:33;11.60;;;2.67;;
37449;SDS011;23309;52.582;13.406;2022-10-04T07:02:17;10.57;;;2.53;;
37449;SDS011;23309;52.582;13.406;2022-10-04T07:04:49;11.10;;;2.80;;
37449;SDS011;23309;52.582;13.406;2022-10-04T07:07:22;8.50;;;2.60;;
37449;SDS011;23309;52.582;13.406;2022-10-04T07:09:55;8.17;;;2.40;;
37449;SDS011;23309;52.582;13.406;2022-10-04T07:12:30;10.07;;;2.90;;
37449;SDS011;23309;52.582;13.406;2022-10-04T07:14:59;8.10;;;2.43;;
37449;SDS011;23309;52.582;13.406;2022-10-04T07:17:36;8.03;;;2.30;;
37449;SDS011;23309;52.582;13.406;2022-10-04T07:20:12;9.30;;;2.57;;
37449;SDS011;23309;52.582;13.406;2022-10-04T07:22:45;6.67;;;2.67;;
37449;SDS011;23309;52.582;13.406;2022-10-04T07:25:18;8.77;;;2.40;;
37449;SDS011;23309;52.582;13.406;2022-10-04T07:27:49;12.10;;;2.80;;
37449;SDS011;23309;52.582;13.406;2022-10-04T07:30:20;10.27;;;2.73;;
37449;SDS011;23309;52.582;13.406;2022-10-04T07:32:49;6.27;;;2.37;;
37449;SDS011;23309;52.582;13.406;2022-10-04T07:35:19;9.57;;;2.70;;
37449;SDS011;23309;52.582;13.406;2022-10-04T07:37:55;5.80;;;2.43;;
37449;SDS011;23309;52.582;13.406;2022-10-04T07:40:35;5.93;;;2.10;;
37449;SDS011;23309;52.582;13.406;2022-10-04T07:43:08;8.33;;;2.10;;
37449;SDS011;23309;52.582;13.406;2022-10-04T07:45:43;6.97;;;2.10;;
37449;SDS011;23309;52.582;13.406;2022-10-04T07:48:14;9.40;;;2.67;;
37449;SDS011;23309;52.582;13.406;2022-10-04T07:50:45;9.77;;;2.70;;
37449;SDS011;23309;52.582;13.406;2022-10-04T07:53:26;7.00;;;2.10;;
37449;SDS011;23309;52.582;13.406;2022-10-04T07:55:59;8.93;;;2.53;;
37449;SDS011;23309;52.582;13.406;2022-10-04T07:58:34;8.50;;;2.70;;
37449;SDS011;23309;52.582;13.406;2022-10-04T08:01:15;8.17;;;2.70;;
37449;SDS011;23309;52.582;13.406;2022-10-04T08:03:58;5.13;;;2.50;;
37449;SDS011;23309;52.582;13.406;2022-10-04T08:06:38;7.43;;;2.83;;
37449;SDS011;23309;52.582;13.406;2022-10-04T08:12:17;6.30;;;3.03;;
37449;SDS011;23309;52.582;13.406;2022-10-04T08:14:52;10.03;;;2.80;;
37449;SDS011;23309;52.582;13.406;2022-10-04T08:17:46;10.83;;;2.93;;
37449;SDS011;23309;52.582;13.406;2022-10-04T08:20:33;13.40;;;3.10;;
37449;SDS011;23309;52.582;13.406;2022-10-04T08:23:14;11.33;;;2.80;;
37449;SDS011;23309;52.582;13.406;2022-10-04T08:25:57;9.10;;;3.23;;
37449;SDS011;23309;52.582;13.406;2022-10-04T08:28:43;7.03;;;2.60;;
37449;SDS011;23309;52.582;13.406;2022-10-04T08:31:21;6.53;;;2.50;;
37449;SDS011;23309;52.582;13.406;2022-10-04T08:34:08;5.33;;;2.90;;
37449;SDS011;23309;52.582;13.406;2022-10-04T08:36:57;7.27;;;2.87;;
37449;SDS011;23309;52.582;13.406;2022-10-04T08:39:39;4.63;;;2.70;;
37449;SDS011;23309;52.582;13.406;2022-10-04T08:42:30;8.10;;;3.13;;
37449;SDS011;23309;52.582;13.406;2022-10-04T08:49:05;7.07;;;2.73;;
37449;SDS011;23309;52.582;13.406;2022-10-04T08:58:15;7.50;;;2.80;;
37449;SDS011;23309;52.582;13.406;2022-10-04T09:07:50;8.63;;;3.23;;
37449;SDS011;23309;52.582;13.406;2022-10-04T09:14:03;6.03;;;3.20;;
37449;SDS011;23309;52.582;13.406;2022-10-04T09:16:51;4.63;;;2.90;;
37449;SDS011;23309;52.582;13.406;2022-10-04T09:19:28;5.77;;;2.70;;
37449;SDS011;23309;52.582;13.406;2022-10-04T09:22:16;7.43;;;2.90;;
37449;SDS011;23309;52.582;13.406;2022-10-04T09:28:12;7.43;;;2.63;;
37449;SDS011;23309;52.582;13.406;2022-10-04T09:31:02;5.43;;;2.30;;
37449;SDS011;23309;52.582;13.406;2022-10-04T09:34:13;8.50;;;3.10;;
37449;SDS011;23309;52.582;13.406;2022-10-04T09:37:00;5.40;;;2.33;;
37449;SDS011;23309;52.582;13.406;2022-10-04T09:40:20;7.93;;;2.60;;
37449;SDS011;23309;52.582;13.406;2022-10-04T09:43:25;9.63;;;2.90;;
37449;SDS011;23309;52.582;13.406;2022-10-04T09:49:38;5.97;;;2.13;;
37449;SDS011;23309;52.582;13.406;2022-10-04T09:52:30;5.73;;;2.50;;
37449;SDS011;23309;52.582;13.406;2022-10-04T09:55:07;6.03;;;2.40;;
37449;SDS011;23309;52.582;13.406;2022-10-04T09:58:05;9.33;;;2.87;;
37449;SDS011;23309;52.582;13.406;2022-10-04T10:01:05;6.57;;;2.60;;
37449;SDS011;23309;52.582;13.406;2022-10-04T10:03:45;4.60;;;2.40;;
37449;SDS011;23309;52.582;13.406;2022-10-04T10:07:00;5.87;;;2.80;;
37449;SDS011;23309;52.582;13.406;2022-10-04T10:09:43;8.20;;;2.50;;
37449;SDS011;23309;52.582;13.406;2022-10-04T10:12:25;6.50;;;2.40;;
37449;SDS011;23309;52.582;13.406;2022-10-04T10:15:17;6.20;;;2.33;;
37449;SDS011;23309;52.582;13.406;2022-10-04T10:17:56;7.57;;;2.80;;
37449;SDS011;23309;52.582;13.406;2022-10-04T10:20:39;7.27;;;2.30;;
37449;SDS011;23309;52.582;13.406;2022-10-04T10:23:50;6.60;;;2.50;;
37449;SDS011;23309;52.582;13.406;2022-10-04T10:26:48;7.00;;;2.87;;
37449;SDS011;23309;52.582;13.406;2022-10-04T10:32:41;8.43;;;2.53;;
37449;SDS011;23309;52.582;13.406;2022-10-04T10:35:40;6.07;;;2.43;;
37449;SDS011;23309;52.582;13.406;2022-10-04T10:38:59;5.60;;;2.27;;
37449;SDS011;23309;52.582;13.406;2022-10-04T10:42:05;5.13;;;2.20;;
37449;SDS011;23309;52.582;13.406;2022-10-04T10:45:03;5.00;;;2.50;;
37449;SDS011;23309;52.582;13.406;2022-10-04T10:48:03;4.33;;;2.20;;
37449;SDS011;23309;52.582;13.406;2022-10-04T10:50:52;4.47;;;2.20;;
37449;SDS011;23309;52.582;13.406;2022-10-04T10:53:45;6.67;;;2.10;;
37449;SDS011;23309;52.582;13.406;2022-10-04T10:56:45;3.40;;;2.00;;
37449;SDS011;23309;52.582;13.406;2022-10-04T11:05:50;5.27;;;2.53;;
37449;SDS011;23309;52.582;13.406;2022-10-04T11:12:00;6.13;;;2.20;;
37449;SDS011;23309;52.582;13.406;2022-10-04T11:15:04;6.70;;;2.33;;
37449;SDS011;23309;52.582;13.406;2022-10-04T11:18:12;6.43;;;2.83;;
37449;SDS011;23309;52.582;13.406;2022-10-04T11:21:25;11.03;;;2.93;;
37449;SDS011;23309;52.582;13.406;2022-10-04T11:27:28;8.93;;;2.63;;
37449;SDS011;23309;52.582;13.406;2022-10-04T11:30:08;9.93;;;2.60;;
37449;SDS011;23309;52.582;13.406;2022-10-04T11:33:02;5.00;;;2.47;;
37449;SDS011;23309;52.582;13.406;2022-10-04T11:36:27;8.30;;;2.20;;
37449;SDS011;23309;52.582;13.406;2022-10-04T11:39:07;6.53;;;2.40;;
37449;SDS011;23309;52.582;13.406;2022-10-04T11:42:05;8.27;;;2.53;;
37449;SDS011;23309;52.582;13.406;2022-10-04T11:44:46;11.27;;;2.70;;
37449;SDS011;23309;52.582;13.406;2022-10-04T11:47:49;5.60;;;2.63;;
37449;SDS011;23309;52.582;13.406;2022-10-04T11:50:36;7.80;;;2.57;;
37449;SDS011;23309;52.582;13.406;2022-10-04T11:53:28;8.50;;;2.80;;
37449;SDS011;23309;52.582;13.406;2022-10-04T11:56:37;13.23;;;2.70;;
37449;SDS011;23309;52.582;13.406;2022-10-04T11:59:19;5.53;;;2.47;;
37449;SDS011;23309;52.582;13.406;2022-10-04T12:05:19;6.07;;;2.73;;
37449;SDS011;23309;52.582;13.406;2022-10-04T12:08:08;7.47;;;3.20;;
37449;SDS011;23309;52.582;13.406;2022-10-04T12:10:57;7.97;;;2.43;;
37449;SDS011;23309;52.582;13.406;2022-10-04T12:13:57;9.47;;;2.43;;
37449;SDS011;23309;52.582;13.406;2022-10-04T12:16:42;7.87;;;2.73;;
37449;SDS011;23309;52.582;13.406;2022-10-04T12:19:43;8.70;;;2.90;;
37449;SDS011;23309;52.582;13.406;2022-10-04T12:22:43;9.13;;;2.77;;
37449;SDS011;23309;52.582;13.406;2022-10-04T12:25:27;11.50;;;2.70;;
37449;SDS011;23309;52.582;13.406;2022-10-04T12:28:35;7.53;;;2.23;;
37449;SDS011;23309;52.582;13.406;2022-10-04T12:31:24;5.60;;;2.30;;
37449;SDS011;23309;52.582;13.406;2022-10-04T12:33:56;10.30;;;1.90;;
37449;SDS011;23309;52.582;13.406;2022-10-04T12:36:42;6.07;;;2.00;;
37449;SDS011;23309;52.582;13.406;2022-10-04T12:39:33;8.30;;;2.00;;
37449;SDS011;23309;52.582;13.406;2022-10-04T12:42:17;6.83;;;2.10;;
37449;SDS011;23309;52.582;13.406;2022-10-04T12:45:01;5.70;;;2.20;;
37449;SDS011;23309;52.582;13.406;2022-10-04T12:48:21;8.50;;;2.20;;
37449;SDS011;23309;52.582;13.406;2022-10-04T12:51:10;6.70;;;2.33;;
37449;SDS011;23309;52.582;13.406;2022-10-04T12:54:05;6.47;;;2.10;;
37449;SDS011;23309;52.582;13.406;2022-10-04T12:56:46;9.20;;;2.10;;
37449;SDS011;23309;52.582;13.406;2022-10-04T12:59:26;9.70;;;2.50;;
37449;SDS011;23309;52.582;13.406;2022-10-04T13:02:14;9.13;;;2.37;;
37449;SDS011;23309;52.582;13.406;2022-10-04T13:05:00;5.73;;;2.67;;
37449;SDS011;23309;52.582;13.406;2022-10-04T13:07:51;6.50;;;2.50;;
37449;SDS011;23309;52.582;13.406;2022-10-04T13:10:46;4.37;;;1.93;;
37449;SDS011;23309;52.582;13.406;2022-10-04T13:16:38;9.70;;;2.37;;
37449;SDS011;23309;52.582;13.406;2022-10-04T13:19:18;10.80;;;2.33;;
37449;SDS011;23309;52.582;13.406;2022-10-04T13:25:01;5.40;;;2.00;;
37449;SDS011;23309;52.582;13.406;2022-10-04T13:27:48;9.90;;;2.10;;
37449;SDS011;23309;52.582;13.406;2022-10-04T13:30:24;6.53;;;2.00;;
37449;SDS011;23309;52.582;13.406;2022-10-04T13:33:01;6.40;;;2.70;;
37449;SDS011;23309;52.582;13.406;2022-10-04T13:35:48;6.63;;;2.27;;
37449;SDS011;23309;52.582;13.406;2022-10-04T13:38:29;5.80;;;2.30;;
37449;SDS011;23309;52.582;13.406;2022-10-04T13:41:21;6.23;;;2.37;;
37449;SDS011;23309;52.582;13.406;2022-10-04T13:47:03;8.20;;;2.30;;
37449;SDS011;23309;52.582;13.406;2022-10-04T13:49:50;4.93;;;1.90;;
37449;SDS011;23309;52.582;13.406;2022-10-04T13:52:38;9.03;;;2.40;;
37449;SDS011;23309;52.582;13.406;2022-10-04T13:55:18;9.00;;;2.20;;
37449;SDS011;23309;52.582;13.406;2022-10-04T13:57:56;7.63;;;2.10;;
37449;SDS011;23309;52.582;13.406;2022-10-04T14:00:37;5.67;;;2.23;;
37449;SDS011;23309;52.582;13.406;2022-10-04T14:03:29;8.40;;;2.30;;
37449;SDS011;23309;52.582;13.406;2022-10-04T14:06:26;7.07;;;2.20;;
37449;SDS011;23309;52.582;13.406;2022-10-04T14:09:21;6.20;;;2.60;;
37449;SDS011;23309;52.582;13.406;2022-10-04T14:31:36;7.27;;;2.03;;
37449;SDS011;23309;52.582;13.406;2022-10-04T14:34:48;5.60;;;2.00;;
37449;SDS011;23309;52.582;13.406;2022-10-04T14:37:35;7.23;;;2.00;;
37449;SDS011;23309;52.582;13.406;2022-10-04T14:40:39;6.13;;;1.70;;
37449;SDS011;23309;52.582;13.406;2022-10-04T14:46:43;5.47;;;1.60;;
37449;SDS011;23309;52.582;13.406;2022-10-04T14:49:21;5.00;;;1.97;;
37449;SDS011;23309;52.582;13.406;2022-10-04T14:52:16;10.37;;;1.83;;
37449;SDS011;23309;52.582;13.406;2022-10-04T14:55:05;6.07;;;1.73;;
37449;SDS011;23309;52.582;13.406;2022-10-04T14:57:50;5.13;;;1.83;;
37449;SDS011;23309;52.582;13.406;2022-10-04T15:00:32;8.27;;;1.90;;
37449;SDS011;23309;52.582;13.406;2022-10-04T15:03:24;3.10;;;1.70;;
37449;SDS011;23309;52.582;13.406;2022-10-04T15:06:09;4.50;;;1.73;;
37449;SDS011;23309;52.582;13.406;2022-10-04T15:08:46;6.93;;;1.87;;
37449;SDS011;23309;52.582;13.406;2022-10-04T15:11:55;6.57;;;2.00;;
37449;SDS011;23309;52.582;13.406;2022-10-04T15:14:35;5.00;;;2.00;;
37449;SDS011;23309;52.582;13.406;2022-10-04T15:17:04;5.43;;;2.10;;
37449;SDS011;23309;52.582;13.406;2022-10-04T15:19:36;7.87;;;1.83;;
37449;SDS011;23309;52.582;13.406;2022-10-04T15:22:22;4.17;;;1.50;;
37449;SDS011;23309;52.582;13.406;2022-10-04T15:24:52;7.70;;;1.80;;
37449;SDS011;23309;52.582;13.406;2022-10-04T15:27:27;6.90;;;1.73;;
37449;SDS011;23309;52.582;13.406;2022-10-04T15:30:20;6.83;;;1.70;;
37449;SDS011;23309;52.582;13.406;2022-10-04T15:33:07;6.37;;;2.07;;
37449;SDS011;23309;52.582;13.406;2022-10-04T15:39:33;6.10;;;1.67;;
37449;SDS011;23309;52.582;13.406;2022-10-04T15:42:22;7.20;;;2.03;;
37449;SDS011;23309;52.582;13.406;2022-10-04T15:44:55;6.53;;;1.53;;
37449;SDS011;23309;52.582;13.406;2022-10-04T15:47:53;6.07;;;1.50;;
37449;SDS011;23309;52.582;13.406;2022-10-04T15:50:52;5.03;;;1.87;;
37449;SDS011;23309;52.582;13.406;2022-10-04T15:53:39;6.73;;;2.23;;
37449;SDS011;23309;52.582;13.406;2022-10-04T16:05:30;5.70;;;1.77;;
37449;SDS011;23309;52.582;13.406;2022-10-04T16:11:43;5.00;;;1.80;;
37449;SDS011;23309;52.582;13.406;2022-10-04T16:17:52;6.60;;;2.30;;
37449;SDS011;23309;52.582;13.406;2022-10-04T16:20:59;8.97;;;2.47;;
37449;SDS011;23309;52.582;13.406;2022-10-04T16:23:34;6.57;;;3.20;;
37449;SDS011;23309;52.582;13.406;2022-10-04T16:26:02;7.90;;;2.57;;
37449;SDS011;23309;52.582;13.406;2022-10-04T16:28:41;5.80;;;3.40;;
37449;SDS011;23309;52.582;13.406;2022-10-04T16:31:26;11.83;;;5.90;;
37449;SDS011;23309;52.582;13.406;2022-10-04T16:34:32;17.90;;;6.30;;
37449;SDS011;23309;52.582;13.406;2022-10-04T16:40:00;10.50;;;4.87;;
37449;SDS011;23309;52.582;13.406;2022-10-04T16:42:48;6.70;;;4.30;;
37449;SDS011;23309;52.582;13.406;2022-10-04T16:45:30;4.60;;;3.30;;
37449;SDS011;23309;52.582;13.406;2022-10-04T16:48:12;9.73;;;5.30;;
37449;SDS011;23309;52.582;13.406;2022-10-04T16:51:17;9.63;;;4.87;;
37449;SDS011;23309;52.582;13.406;2022-10-04T16:54:28;13.60;;;8.63;;
37449;SDS011;23309;52.582;13.406;2022-10-04T16:57:20;11.60;;;7.80;;
37449;SDS011;23309;52.582;13.406;2022-10-04T16:59:50;18.00;;;9.33;;
37449;SDS011;23309;52.582;13.406;2022-10-04T17:05:34;10.37;;;7.07;;
37449;SDS011;23309;52.582;13.406;2022-10-04T17:11:39;10.60;;;5.23;;
37449;SDS011;23309;52.582;13.406;2022-10-04T17:14:29;10.70;;;4.60;;
37449;SDS011;23309;52.582;13.406;2022-10-04T17:17:23;5.73;;;3.93;;
37449;SDS011;23309;52.582;13.406;2022-10-04T17:20:04;8.47;;;5.03;;
37449;SDS011;23309;52.582;13.406;2022-10-04T17:22:44;11.00;;;5.43;;
37449;SDS011;23309;52.582;13.406;2022-10-04T17:25:26;8.07;;;4.60;;
37449;SDS011;23309;52.582;13.406;2022-10-04T17:28:12;14.00;;;6.80;;
37449;SDS011;23309;52.582;13.406;2022-10-04T17:30:49;10.07;;;3.30;;
37449;SDS011;23309;52.582;13.406;2022-10-04T17:33:26;5.27;;;2.80;;
37449;SDS011;23309;52.582;13.406;2022-10-04T17:42:05;7.20;;;3.20;;
37449;SDS011;23309;52.582;13.406;2022-10-04T17:44:57;8.30;;;2.73;;
37449;SDS011;23309;52.582;13.406;2022-10-04T17:47:46;5.23;;;3.13;;
37449;SDS011;23309;52.582;13.406;2022-10-04T17:50:25;6.30;;;2.70;;
37449;SDS011;23309;52.582;13.406;2022-10-04T17:53:02;4.80;;;2.70;;
37449;SDS011;23309;52.582;13.406;2022-10-04T17:55:41;7.27;;;3.07;;
37449;SDS011;23309;52.582;13.406;2022-10-04T17:58:15;7.93;;;3.80;;
37449;SDS011;23309;52.582;13.406;2022-10-04T18:00:49;6.53;;;3.27;;
37449;SDS011;23309;52.582;13.406;2022-10-04T18:03:23;6.67;;;3.07;;
37449;SDS011;23309;52.582;13.406;2022-10-04T18:05:57;4.90;;;2.80;;
37449;SDS011;23309;52.582;13.406;2022-10-04T18:08:39;6.27;;;3.50;;
37449;SDS011;23309;52.582;13.406;2022-10-04T18:11:14;8.90;;;3.27;;
37449;SDS011;23309;52.582;13.406;2022-10-04T18:13:53;7.80;;;2.67;;
37449;SDS011;23309;52.582;13.406;2022-10-04T18:16:25;5.13;;;2.70;;
37449;SDS011;23309;52.582;13.406;2022-10-04T18:18:55;5.70;;;2.70;;
37449;SDS011;23309;52.582;13.406;2022-10-04T18:21:27;5.20;;;3.00;;
37449;SDS011;23309;52.582;13.406;2022-10-04T18:23:56;6.17;;;2.80;;
37449;SDS011;23309;52.582;13.406;2022-10-04T18:26:26;8.87;;;4.07;;